createdAt,value
2019-02-04T00:02:13.837Z,1.61
2019-02-04T00:04:40.863Z,1.53
2019-02-04T00:07:08.769Z,1.57
2019-02-04T00:09:35.450Z,1.57
2019-02-04T00:12:02.823Z,1.53
2019-02-04T00:14:29.581Z,1.61
2019-02-04T00:16:56.107Z,1.51
2019-02-04T00:19:22.479Z,1.51
2019-02-04T00:21:49.298Z,1.56
2019-02-04T00:24:16.239Z,1.60
2019-02-04T00:39:42.036Z,1.31
2019-02-04T00:49:04.139Z,1.35
2019-02-04T00:54:39.505Z,1.23
2019-02-04T00:57:05.846Z,1.19
2019-02-04T00:59:32.066Z,1.28
2019-02-04T01:01:58.596Z,1.26
2019-02-04T01:04:24.973Z,1.28
2019-02-04T01:06:52.411Z,1.24
2019-02-04T01:09:18.860Z,1.23
2019-02-04T01:11:45.251Z,1.14
2019-02-04T01:14:11.507Z,1.05
2019-02-04T01:16:37.904Z,1.08
2019-02-04T01:19:04.427Z,0.93
2019-02-04T01:21:30.842Z,1.01
2019-02-04T01:23:57.774Z,0.79
2019-02-04T01:26:24.005Z,0.69
2019-02-04T01:28:50.419Z,0.73
2019-02-04T01:31:16.679Z,0.76
2019-02-04T01:33:42.934Z,0.77
2019-02-04T01:36:09.716Z,0.73
2019-02-04T01:38:36.328Z,0.78
2019-02-04T01:41:02.676Z,0.80
2019-02-04T01:43:29.606Z,0.87
2019-02-04T01:45:55.857Z,0.74
2019-02-04T01:48:22.269Z,0.81
2019-02-04T01:50:48.696Z,0.76
2019-02-04T01:53:14.968Z,0.69
2019-02-04T01:55:41.356Z,0.83
2019-02-04T01:58:08.002Z,0.68
2019-02-04T02:00:35.223Z,0.57
2019-02-04T02:03:01.474Z,0.44
2019-02-04T02:05:27.994Z,0.39
2019-02-04T02:07:54.449Z,0.36
2019-02-04T02:10:22.853Z,0.30
2019-02-04T02:12:49.386Z,0.27
2019-02-04T02:15:24.808Z,0.35
2019-02-04T02:17:51.345Z,0.33
2019-02-04T02:20:23.659Z,0.27
2019-02-04T02:22:49.948Z,0.29
2019-02-04T02:25:16.323Z,0.21
2019-02-04T02:27:43.305Z,0.30
2019-02-04T02:30:13.426Z,0.35
2019-02-04T02:32:39.992Z,0.48
2019-02-04T02:35:06.887Z,0.47
2019-02-04T02:37:33.242Z,0.47
2019-02-04T02:39:59.980Z,0.45
2019-02-04T02:42:26.245Z,0.48
2019-02-04T02:44:52.423Z,0.42
2019-02-04T02:47:18.788Z,0.49
2019-02-04T02:49:45.149Z,0.61
2019-02-04T02:52:11.842Z,0.49
2019-02-04T02:54:38.033Z,0.65
2019-02-04T02:57:05.248Z,0.71
2019-02-04T02:59:31.580Z,0.72
2019-02-04T03:01:57.804Z,0.89
2019-02-04T03:04:24.028Z,0.73
2019-02-04T03:06:50.477Z,0.71
2019-02-04T03:09:16.793Z,0.73
2019-02-04T03:11:43.199Z,0.83
2019-02-04T03:14:09.649Z,0.77
2019-02-04T03:16:35.970Z,0.59
2019-02-04T03:19:02.340Z,0.66
2019-02-04T03:25:05.265Z,0.75
2019-02-04T03:27:31.519Z,0.83
2019-02-04T03:29:58.223Z,0.76
2019-02-04T03:32:24.550Z,0.59
2019-02-04T03:34:50.818Z,0.64
2019-02-04T03:37:17.180Z,0.55
2019-02-04T03:39:43.707Z,0.64
2019-02-04T03:42:09.978Z,0.62
2019-02-04T03:44:36.437Z,0.57
2019-02-04T03:47:02.827Z,0.40
2019-02-04T03:49:29.137Z,0.50
2019-02-04T03:51:55.375Z,0.57
2019-02-04T03:54:21.743Z,0.50
2019-02-04T03:56:48.088Z,0.48
2019-02-04T03:59:14.452Z,0.49
2019-02-04T04:01:40.868Z,0.54
2019-02-04T04:04:07.133Z,0.53
2019-02-04T04:06:33.738Z,0.44
2019-02-04T04:09:00.048Z,0.44
2019-02-04T04:11:26.304Z,0.50
2019-02-04T04:13:53.062Z,0.47
2019-02-04T04:16:19.380Z,0.43
2019-02-04T04:18:45.937Z,0.40
2019-02-04T04:21:12.266Z,0.44
2019-02-04T04:23:38.674Z,0.44
2019-02-04T04:26:04.969Z,0.53
2019-02-04T04:28:31.665Z,0.49
2019-02-04T04:30:58.002Z,0.54
2019-02-04T04:33:24.354Z,0.57
2019-02-04T04:35:50.796Z,0.51
2019-02-04T04:38:18.913Z,0.62
2019-02-04T04:40:45.177Z,0.77
2019-02-04T04:43:11.825Z,0.74
2019-02-04T04:45:38.146Z,0.68
2019-02-04T04:48:04.890Z,0.76
2019-02-04T04:50:33.390Z,0.90
2019-02-04T04:52:59.818Z,0.81
2019-02-04T04:55:26.148Z,0.77
2019-02-04T04:57:53.292Z,0.72
2019-02-04T05:00:26.260Z,0.62
2019-02-04T05:02:52.771Z,0.64
2019-02-04T05:05:19.741Z,0.63
2019-02-04T05:07:46.185Z,0.63
2019-02-04T05:10:15.834Z,0.69
2019-02-04T05:12:42.651Z,0.61
2019-02-04T05:15:12.334Z,0.51
2019-02-04T05:17:38.679Z,0.51
2019-02-04T05:20:08.799Z,0.61
2019-02-04T05:22:35.142Z,0.42
2019-02-04T05:25:01.637Z,0.33
2019-02-04T05:27:28.082Z,0.16
2019-02-04T05:29:54.466Z,-0.01
2019-02-04T05:32:20.799Z,0.06
2019-02-04T05:34:47.108Z,0.10
2019-02-04T05:37:13.487Z,0.14
2019-02-04T05:39:39.769Z,0.03
2019-02-04T05:42:06.355Z,-0.11
2019-02-04T05:44:33.049Z,-0.22
2019-02-04T05:47:03.116Z,-0.15
2019-02-04T05:49:29.422Z,-0.35
2019-02-04T05:51:56.251Z,-0.28
2019-02-04T05:54:23.291Z,-0.28
2019-02-04T05:56:49.762Z,-0.17
2019-02-04T05:59:16.092Z,-0.21
2019-02-04T06:01:42.446Z,-0.17
2019-02-04T06:04:08.924Z,-0.16
2019-02-04T06:06:35.290Z,-0.17
2019-02-04T06:09:01.564Z,-0.34
2019-02-04T06:11:28.017Z,-0.35
2019-02-04T06:13:55.042Z,-0.19
2019-02-04T06:16:21.589Z,-0.34
2019-02-04T06:18:48.276Z,-0.55
2019-02-04T06:21:14.949Z,-0.51
2019-02-04T06:23:41.636Z,-0.39
2019-02-04T06:26:08.429Z,-0.40
2019-02-04T06:28:35.614Z,-0.43
2019-02-04T06:31:02.199Z,-0.42
2019-02-04T06:33:28.832Z,-0.34
2019-02-04T06:35:55.870Z,-0.28
2019-02-04T06:38:22.617Z,-0.22
2019-02-04T06:40:49.147Z,-0.20
2019-02-04T06:43:15.899Z,-0.25
2019-02-04T06:45:42.600Z,-0.27
2019-02-04T06:48:09.273Z,-0.26
2019-02-04T06:50:35.804Z,-0.28
2019-02-04T06:53:02.373Z,-0.20
2019-02-04T06:55:33.039Z,-0.25
2019-02-04T06:57:59.879Z,-0.12
2019-02-04T07:00:26.970Z,-0.12
2019-02-04T07:02:54.090Z,-0.11
2019-02-04T07:05:20.991Z,0.02
2019-02-04T07:07:47.475Z,-0.10
2019-02-04T07:10:17.720Z,-0.27
2019-02-04T07:12:44.742Z,-0.14
2019-02-04T07:15:11.774Z,-0.11
2019-02-04T07:17:39.138Z,-0.10
2019-02-04T07:20:09.477Z,-0.30
2019-02-04T07:22:36.299Z,-0.39
2019-02-04T07:25:05.849Z,-0.29
2019-02-04T07:27:32.264Z,-0.42
2019-02-04T07:29:58.701Z,-0.42
2019-02-04T07:32:25.306Z,-0.43
2019-02-04T07:34:52.572Z,-0.40
2019-02-04T07:37:19.080Z,-0.57
2019-02-04T07:39:45.976Z,-0.55
2019-02-04T07:42:13.445Z,-0.41
2019-02-04T07:44:39.984Z,-0.49
2019-02-04T07:47:06.502Z,-0.44
2019-02-04T07:49:35.207Z,-0.67
2019-02-04T07:52:01.912Z,-0.69
2019-02-04T07:54:28.587Z,-0.57
2019-02-04T07:57:01.336Z,-0.69
2019-02-04T07:59:27.864Z,-0.70
2019-02-04T08:01:54.957Z,-0.67
2019-02-04T08:04:21.790Z,-0.59
2019-02-04T08:06:48.641Z,-0.60
2019-02-04T08:09:15.539Z,-0.45
2019-02-04T08:11:42.432Z,-0.40
2019-02-04T08:14:09.588Z,-0.37
2019-02-04T08:16:36.596Z,-0.32
2019-02-04T08:19:03.218Z,-0.16
2019-02-04T08:21:31.218Z,-0.11
2019-02-04T08:23:57.694Z,-0.01
2019-02-04T08:26:24.979Z,-0.01
2019-02-04T08:28:52.419Z,0.12
2019-02-04T08:31:19.536Z,0.10
2019-02-04T08:33:46.656Z,0.18
2019-02-04T08:36:13.988Z,0.33
2019-02-04T08:42:16.079Z,0.48
2019-02-04T08:44:42.819Z,0.52
2019-02-04T08:47:09.351Z,0.61
2019-02-04T08:49:35.894Z,0.54
2019-02-04T08:52:04.315Z,0.67
2019-02-04T08:54:31.522Z,0.69
2019-02-04T08:57:04.716Z,0.79
2019-02-04T08:59:32.037Z,0.77
2019-02-04T09:01:58.751Z,0.78
2019-02-04T09:04:25.669Z,0.84
2019-02-04T09:06:52.310Z,0.90
2019-02-04T09:09:20.555Z,0.98
2019-02-04T09:11:47.191Z,1.13
2019-02-04T09:14:13.931Z,1.20
2019-02-04T09:16:40.558Z,1.29
2019-02-04T09:19:07.185Z,1.31
2019-02-04T09:21:33.854Z,1.28
2019-02-04T09:24:00.468Z,1.34
2019-02-04T09:26:27.227Z,1.36
2019-02-04T09:28:53.998Z,1.50
2019-02-04T09:31:20.420Z,1.62
2019-02-04T09:33:46.948Z,1.55
2019-02-04T09:36:13.228Z,1.64
2019-02-04T09:38:39.871Z,1.78
2019-02-04T09:41:06.436Z,1.85
2019-02-04T09:43:32.693Z,1.88
2019-02-04T09:45:59.385Z,1.95
2019-02-04T09:48:25.761Z,2.01
2019-02-04T09:50:52.231Z,2.15
2019-02-04T09:53:18.857Z,2.08
2019-02-04T09:55:45.243Z,2.20
2019-02-04T09:58:11.569Z,2.15
2019-02-04T10:00:37.896Z,2.32
2019-02-04T10:03:05.772Z,2.29
2019-02-04T10:05:32.437Z,2.15
2019-02-04T10:07:59.361Z,2.34
2019-02-04T10:10:27.986Z,2.39
2019-02-04T10:12:55.431Z,2.38
2019-02-04T10:15:36.301Z,2.38
2019-02-04T10:18:03.689Z,2.53
2019-02-04T10:20:34.043Z,2.52
2019-02-04T10:22:58.840Z,2.44
2019-02-04T10:25:33.878Z,2.59
2019-02-04T10:28:00.549Z,2.75
2019-02-04T10:30:27.533Z,2.81
2019-02-04T10:32:54.739Z,2.86
2019-02-04T10:35:21.467Z,2.94
2019-02-04T10:37:49.760Z,2.93
2019-02-04T10:40:19.419Z,3.06
2019-02-04T10:42:45.887Z,3.08
2019-02-04T10:45:14.186Z,3.18
2019-02-04T10:47:40.731Z,3.26
2019-02-04T10:50:16.294Z,3.26
2019-02-04T10:52:43.087Z,3.45
2019-02-04T10:55:10.061Z,3.40
2019-02-04T10:57:40.624Z,3.49
2019-02-04T11:00:08.556Z,3.75
2019-02-04T11:02:35.061Z,3.79
2019-02-04T11:05:01.410Z,4.01
2019-02-04T11:07:27.754Z,4.19
2019-02-04T11:09:54.545Z,4.13
2019-02-04T11:12:20.957Z,4.16
2019-02-04T11:14:47.244Z,4.19
2019-02-04T11:17:13.742Z,4.26
2019-02-04T11:19:40.172Z,4.28
2019-02-04T11:22:06.687Z,4.30
2019-02-04T11:24:33.162Z,4.35
2019-02-04T11:26:59.709Z,4.18
2019-02-04T11:29:26.606Z,4.32
2019-02-04T11:31:52.923Z,4.04
2019-02-04T11:34:19.437Z,4.26
2019-02-04T11:36:45.812Z,4.38
2019-02-04T11:39:12.365Z,4.41
2019-02-04T11:41:38.832Z,4.53
2019-02-04T11:44:05.420Z,4.42
2019-02-04T11:46:31.739Z,4.65
2019-02-04T11:49:04.525Z,4.64
2019-02-04T11:51:31.164Z,4.79
2019-02-04T11:53:57.614Z,4.72
2019-02-04T11:56:23.977Z,4.65
2019-02-04T11:58:50.331Z,4.66
2019-02-04T12:01:16.786Z,4.60
2019-02-04T12:03:49.472Z,4.47
2019-02-04T12:06:17.593Z,4.41
2019-02-04T12:08:51.107Z,4.30
2019-02-04T12:11:17.787Z,4.39
2019-02-04T12:13:44.180Z,4.43
2019-02-04T12:16:11.221Z,4.32
2019-02-04T12:18:37.777Z,4.42
2019-02-04T12:21:04.775Z,4.38
2019-02-04T12:27:07.316Z,4.30
2019-02-04T12:29:34.090Z,4.16
2019-02-04T12:32:01.053Z,4.18
2019-02-04T12:34:27.460Z,4.30
2019-02-04T12:36:53.788Z,4.27
2019-02-04T12:39:21.561Z,4.13
2019-02-04T12:41:50.625Z,4.03
2019-02-04T12:44:16.085Z,3.90
2019-02-04T12:46:42.520Z,4.01
2019-02-04T12:49:08.828Z,3.94
2019-02-04T12:51:35.516Z,4.01
2019-02-04T12:54:01.835Z,3.99
2019-02-04T12:56:28.088Z,3.86
2019-02-04T12:58:55.889Z,3.79
2019-02-04T13:01:22.327Z,3.89
2019-02-04T13:03:48.699Z,3.72
2019-02-04T13:06:15.039Z,3.75
2019-02-04T13:08:41.547Z,3.74
2019-02-04T13:11:08.074Z,3.85
2019-02-04T13:13:34.893Z,3.75
2019-02-04T13:16:01.209Z,3.89
2019-02-04T13:18:28.345Z,3.83
2019-02-04T13:20:54.872Z,3.83
2019-02-04T13:23:21.245Z,3.87
2019-02-04T13:25:47.533Z,3.79
2019-02-04T13:28:14.594Z,3.87
2019-02-04T13:30:41.123Z,3.90
2019-02-04T13:33:07.422Z,3.76
2019-02-04T13:38:34.809Z,3.71
2019-02-04T13:41:08.135Z,3.69
2019-02-04T13:43:29.612Z,3.68
2019-02-04T13:45:57.249Z,3.69
2019-02-04T13:48:23.566Z,3.72
2019-02-04T13:50:50.014Z,3.64
2019-02-04T13:53:16.500Z,3.69
2019-02-04T13:55:43.092Z,3.65
2019-02-04T13:58:09.530Z,3.64
2019-02-04T14:00:36.485Z,3.62
2019-02-04T14:03:04.484Z,3.63
2019-02-04T14:05:31.750Z,3.69
2019-02-04T14:08:00.409Z,3.71
2019-02-04T14:10:35.687Z,3.65
2019-02-04T14:13:03.698Z,3.67
2019-02-04T14:15:31.119Z,3.61
2019-02-04T14:17:57.710Z,3.65
2019-02-04T14:20:25.374Z,3.65
2019-02-04T14:22:53.431Z,3.73
2019-02-04T14:25:20.187Z,3.61
2019-02-04T14:27:46.705Z,3.71
2019-02-04T14:30:16.533Z,3.62
2019-02-04T14:32:42.909Z,3.57
2019-02-04T14:35:09.646Z,3.55
2019-02-04T14:37:36.351Z,3.56
2019-02-04T14:40:18.049Z,3.65
2019-02-04T14:42:34.518Z,3.63
2019-02-04T14:45:04.386Z,3.52
2019-02-04T14:47:34.496Z,3.60
2019-02-04T14:50:07.956Z,3.50
2019-02-04T14:52:37.993Z,3.49
2019-02-04T14:55:24.795Z,3.52
2019-02-04T14:58:19.484Z,3.56
2019-02-04T15:01:18.491Z,3.61
2019-02-04T15:04:09.614Z,3.58
2019-02-04T15:06:56.618Z,3.57
2019-02-04T15:09:43.316Z,3.58
2019-02-04T15:12:37.099Z,3.47
2019-02-04T15:15:10.665Z,3.39
2019-02-04T15:17:40.848Z,3.39
2019-02-04T15:20:10.908Z,3.40
2019-02-04T15:22:50.246Z,3.45
2019-02-04T15:25:46.760Z,3.45
2019-02-04T15:28:29.093Z,3.45
2019-02-04T15:31:35.388Z,3.43
2019-02-04T15:34:11.320Z,3.42
2019-02-04T15:36:50.058Z,3.50
2019-02-04T15:39:35.339Z,3.45
2019-02-04T15:42:08.688Z,3.42
2019-02-04T15:44:44.648Z,3.40
2019-02-04T15:47:39.284Z,3.33
2019-02-04T15:50:12.698Z,3.42
2019-02-04T15:52:45.632Z,3.29
2019-02-04T15:55:11.603Z,3.35
2019-02-04T15:57:38.032Z,3.44
2019-02-04T16:00:08.105Z,3.40
2019-02-04T16:02:34.476Z,3.43
2019-02-04T16:05:01.109Z,3.34
2019-02-04T16:07:27.866Z,3.30
2019-02-04T16:09:54.894Z,3.40
2019-02-04T16:12:21.635Z,3.39
2019-02-04T16:14:48.311Z,3.38
2019-02-04T16:17:14.753Z,3.42
2019-02-04T16:19:41.035Z,3.36
2019-02-04T16:22:07.888Z,3.48
2019-02-04T16:24:34.469Z,3.39
2019-02-04T16:27:00.965Z,3.41
2019-02-04T16:29:28.003Z,3.34
2019-02-04T16:31:54.431Z,3.47
2019-02-04T16:34:23.948Z,3.40
2019-02-04T16:36:49.558Z,3.48
2019-02-04T16:39:15.906Z,3.44
2019-02-04T16:41:42.234Z,3.42
2019-02-04T16:44:09.049Z,3.44
2019-02-04T16:46:35.933Z,3.41
2019-02-04T16:49:02.837Z,3.41
2019-02-04T16:51:29.394Z,3.53
2019-02-04T16:53:56.096Z,3.50
2019-02-04T16:56:22.787Z,3.43
2019-02-04T16:58:49.247Z,3.50
2019-02-04T17:01:15.956Z,3.56
2019-02-04T17:03:42.166Z,3.41
2019-02-04T17:06:09.238Z,3.42
2019-02-04T17:08:35.679Z,3.43
2019-02-04T17:11:01.911Z,3.50
2019-02-04T17:17:05.550Z,3.53
2019-02-04T17:20:09.950Z,3.58
2019-02-04T17:22:23.901Z,3.46
2019-02-04T17:25:09.434Z,3.43
2019-02-04T17:27:35.972Z,3.44
2019-02-04T17:30:06.502Z,3.33
2019-02-04T17:32:33.345Z,3.47
2019-02-04T17:34:59.551Z,3.43
2019-02-04T17:37:25.950Z,3.44
2019-02-04T17:39:52.340Z,3.46
2019-02-04T17:42:19.288Z,3.42
2019-02-04T17:44:45.821Z,3.43
2019-02-04T17:47:12.454Z,3.46
2019-02-04T17:49:39.121Z,3.48
2019-02-04T17:52:06.694Z,3.44
2019-02-04T17:54:33.009Z,3.47
2019-02-04T17:57:00.083Z,3.53
2019-02-04T17:59:27.381Z,3.50
2019-02-04T18:01:54.443Z,3.53
2019-02-04T18:04:21.506Z,3.48
2019-02-04T18:06:48.035Z,3.53
2019-02-04T18:09:14.377Z,3.50
2019-02-04T18:11:41.022Z,3.53
2019-02-04T18:14:07.756Z,3.49
2019-02-04T18:16:47.094Z,3.52
2019-02-04T18:19:13.186Z,3.42
2019-02-04T18:21:43.871Z,3.38
2019-02-04T18:24:10.643Z,3.49
2019-02-04T18:26:37.221Z,3.43
2019-02-04T18:29:04.077Z,3.50
2019-02-04T18:31:33.581Z,3.55
2019-02-04T18:33:58.825Z,3.52
2019-02-04T18:36:25.526Z,3.56
2019-02-04T18:38:52.449Z,3.98
2019-02-04T18:41:21.211Z,3.73
2019-02-04T18:43:47.465Z,3.70
2019-02-04T18:46:14.172Z,3.61
2019-02-04T18:48:41.585Z,3.49
2019-02-04T18:51:07.944Z,3.38
2019-02-04T18:53:34.433Z,3.35
2019-02-04T18:59:24.348Z,3.35
2019-02-04T19:01:50.921Z,3.36
2019-02-04T19:04:17.321Z,3.25
2019-02-04T19:06:47.806Z,3.28
2019-02-04T19:09:12.574Z,3.33
2019-02-04T19:11:39.007Z,3.31
2019-02-04T19:17:41.048Z,3.31
2019-02-04T19:23:18.705Z,3.33
2019-02-04T19:29:19.939Z,3.30
2019-02-04T19:31:46.557Z,3.31
2019-02-04T19:34:13.292Z,3.36
2019-02-04T19:36:45.361Z,3.34
2019-02-04T19:39:20.851Z,3.49
2019-02-04T19:41:54.256Z,3.47
2019-02-04T19:47:54.040Z,3.50
2019-02-04T19:50:38.429Z,3.53
2019-02-04T19:56:16.371Z,3.61
2019-02-04T19:58:43.103Z,3.63
2019-02-04T20:04:35.065Z,3.68
2019-02-04T20:10:36.552Z,3.63
2019-02-04T20:16:27.731Z,3.60
2019-02-04T20:18:55.024Z,3.65
2019-02-04T20:21:21.509Z,3.69
2019-02-04T20:27:27.209Z,3.70
2019-02-04T20:33:17.531Z,3.61
2019-02-04T20:35:44.557Z,3.59
2019-02-04T20:38:10.844Z,3.53
2019-02-04T20:40:37.335Z,3.58
2019-02-04T20:43:05.021Z,3.60
2019-02-04T20:45:31.721Z,3.65
2019-02-04T20:51:10.622Z,3.72
2019-02-04T20:53:36.998Z,3.72
2019-02-04T20:56:04.734Z,3.63
2019-02-04T21:01:53.884Z,3.69
2019-02-04T21:04:33.935Z,3.95
2019-02-04T21:07:01.702Z,3.75
2019-02-04T21:13:03.684Z,3.79
2019-02-04T21:15:29.961Z,3.75
2019-02-04T21:17:56.188Z,3.79
2019-02-04T21:24:15.645Z,3.71
2019-02-04T21:26:48.839Z,3.73
2019-02-04T21:29:19.063Z,3.71
2019-02-04T21:31:46.120Z,3.65
2019-02-04T21:34:13.260Z,3.71
2019-02-04T21:36:40.638Z,3.70
2019-02-04T21:39:15.236Z,4.16
2019-02-04T21:41:42.359Z,4.26
2019-02-04T21:44:08.871Z,4.21
2019-02-04T21:46:35.193Z,4.35
2019-02-04T21:49:01.851Z,4.38
2019-02-04T21:51:30.015Z,4.21
2019-02-04T21:54:13.908Z,3.94
2019-02-04T21:59:40.420Z,3.71
2019-02-04T22:02:08.486Z,3.70
2019-02-04T22:04:35.208Z,3.78
2019-02-04T22:07:01.536Z,3.64
2019-02-04T22:09:27.710Z,3.64
2019-02-04T22:11:53.980Z,3.70
2019-02-04T22:14:20.546Z,3.71
2019-02-04T22:16:48.802Z,3.61
2019-02-04T22:19:15.444Z,3.69
2019-02-04T22:21:41.878Z,3.69
2019-02-04T22:24:13.081Z,3.70
2019-02-04T22:26:39.404Z,3.65
2019-02-04T22:29:08.240Z,3.68
2019-02-04T22:31:34.601Z,3.60
2019-02-04T22:34:01.626Z,3.68
2019-02-04T22:36:28.347Z,3.64
2019-02-04T22:38:54.618Z,3.69
2019-02-04T22:41:20.922Z,3.73
2019-02-04T22:43:47.288Z,3.77
2019-02-04T22:46:13.608Z,3.79
2019-02-04T22:48:40.144Z,3.78
2019-02-04T22:51:06.376Z,3.78
2019-02-04T22:53:32.633Z,3.78
2019-02-04T22:55:59.394Z,3.73
2019-02-04T22:58:25.557Z,3.69
2019-02-04T23:00:55.577Z,3.70
2019-02-04T23:06:34.073Z,3.64
2019-02-04T23:09:03.003Z,3.61
2019-02-04T23:11:29.319Z,3.92
2019-02-04T23:13:55.668Z,3.75
2019-02-04T23:16:22.085Z,3.64
2019-02-04T23:18:48.408Z,3.65
2019-02-04T23:21:14.704Z,3.61
2019-02-04T23:23:40.889Z,3.60
2019-02-04T23:26:08.208Z,3.70
2019-02-04T23:28:34.581Z,3.73
2019-02-04T23:31:00.834Z,3.64
2019-02-04T23:33:34.187Z,3.69
2019-02-04T23:35:55.625Z,3.67
2019-02-04T23:38:21.940Z,3.64
2019-02-04T23:40:48.320Z,3.64
2019-02-04T23:43:14.515Z,3.62
2019-02-04T23:45:41.154Z,3.69
2019-02-04T23:48:07.446Z,3.60
2019-02-04T23:50:33.953Z,3.59
2019-02-04T23:53:00.165Z,3.61
2019-02-04T23:55:26.457Z,3.65
2019-02-04T23:57:52.698Z,3.54
